KBWD/BWD METAR and TAF weather

Enter ICAO airport designator
Station Type Date Time Source
KBWD METAR 2018/01/19 22:55 UTC NOAA

KBWD 192255Z AUTO 16012G21KT 10SM CLR 18/08 A2998 RMK AO2


Station Type Date Time Source
KBWD Decoded METAR 2018/01/19 22:55 UTC NOAA

Brownwood, Brownwood Regional Airport, TX, United States (KBWD) 31-48N 098-57W
Jan 19, 2018 - 05:55 PM EST / 2018.01.19 2255 UTC
Wind: from the SSE (160 degrees) at 14 MPH (12 KT) gusting to 24 MPH (21 KT):0
Visibility: 10 mile(s):0
Sky conditions: clear
Temperature: 64 F (18 C)
Dew Point: 46 F (8 C)
Relative Humidity: 51%
Pressure (altimeter): 29.98 in. Hg (1015 hPa)
ob: KBWD 192255Z AUTO 16012G21KT 10SM CLR 18/08 A2998 RMK AO2
cycle: 23

Station Type Date Time Source
KBWD TAF UTC NOAA

Error!


Example: see airport list